createdAt,value
2022-11-07T00:00:26.844Z,1.70
2022-11-07T00:03:29.566Z,1.60
2022-11-07T00:06:34.030Z,1.83
2022-11-07T00:09:37.302Z,1.67
2022-11-07T00:12:40.779Z,1.60
2022-11-07T00:15:43.502Z,1.50
2022-11-07T00:18:46.504Z,1.73
2022-11-07T00:21:51.024Z,1.60
2022-11-07T00:24:54.050Z,1.50
2022-11-07T00:27:56.740Z,1.90
2022-11-07T00:30:59.910Z,1.50
2022-11-07T00:34:04.021Z,1.40
2022-11-07T00:37:08.113Z,1.60
2022-11-07T00:40:11.707Z,1.40
2022-11-07T00:43:14.876Z,1.60
2022-11-07T00:46:19.843Z,1.70
2022-11-07T00:49:23.035Z,1.70
2022-11-07T00:52:27.451Z,1.53
2022-11-07T00:55:30.601Z,2.00
2022-11-07T00:58:33.696Z,1.50
2022-11-07T01:01:36.685Z,1.60
2022-11-07T01:04:57.394Z,1.67
2022-11-07T01:08:01.466Z,2.00
2022-11-07T01:11:06.133Z,1.50
2022-11-07T01:14:10.444Z,1.70
2022-11-07T01:17:13.178Z,2.30
2022-11-07T01:20:16.146Z,2.00
2022-11-07T01:23:20.232Z,2.13
2022-11-07T01:26:23.369Z,1.80
2022-11-07T01:29:26.103Z,2.17
2022-11-07T01:32:29.539Z,2.00
2022-11-07T01:35:33.566Z,2.30
2022-11-07T01:38:39.900Z,2.10
2022-11-07T01:41:43.447Z,2.10
2022-11-07T01:44:56.886Z,2.17
2022-11-07T01:48:03.556Z,2.10
2022-11-07T01:51:07.782Z,2.23
2022-11-07T01:54:14.637Z,1.90
2022-11-07T01:57:23.372Z,1.93
2022-11-07T02:00:27.624Z,1.90
2022-11-07T02:03:30.432Z,2.37
2022-11-07T02:06:47.540Z,2.00
2022-11-07T02:09:53.618Z,1.77
2022-11-07T02:12:59.983Z,1.83
2022-11-07T02:16:05.466Z,2.00
2022-11-07T02:19:14.405Z,2.00
2022-11-07T02:22:24.844Z,2.10
2022-11-07T02:25:30.708Z,2.53
2022-11-07T02:28:35.565Z,2.43
2022-11-07T02:31:38.635Z,2.47
2022-11-07T02:34:41.479Z,2.47
2022-11-07T02:37:44.363Z,2.20
2022-11-07T02:40:52.659Z,2.30
2022-11-07T02:44:00.879Z,2.40
2022-11-07T02:47:04.201Z,2.47
2022-11-07T02:50:08.814Z,2.30
2022-11-07T02:53:12.636Z,2.30
2022-11-07T02:56:17.281Z,2.23
2022-11-07T02:59:25.738Z,2.33
2022-11-07T03:02:30.253Z,2.30
2022-11-07T03:05:33.655Z,2.40
2022-11-07T03:08:36.693Z,2.27
2022-11-07T03:11:40.785Z,2.20
2022-11-07T03:14:43.635Z,2.07
2022-11-07T03:17:46.892Z,2.10
2022-11-07T03:20:49.780Z,2.30
2022-11-07T03:23:53.064Z,2.37
2022-11-07T03:26:57.178Z,2.53
2022-11-07T03:30:00.338Z,2.10
2022-11-07T03:33:03.286Z,2.40
2022-11-07T03:36:07.331Z,2.20
2022-11-07T03:39:11.271Z,2.03
2022-11-07T03:42:15.917Z,2.07
2022-11-07T03:45:19.434Z,1.40
2022-11-07T03:48:22.165Z,1.70
2022-11-07T03:51:25.149Z,1.80
2022-11-07T03:54:28.527Z,1.80
2022-11-07T03:57:32.654Z,1.63
2022-11-07T04:00:35.533Z,1.50
2022-11-07T04:03:38.464Z,1.77
2022-11-07T04:06:41.281Z,1.33
2022-11-07T04:09:44.021Z,1.53
2022-11-07T04:13:05.467Z,1.70
2022-11-07T04:16:23.830Z,1.83
2022-11-07T04:19:27.654Z,1.47
2022-11-07T04:22:31.030Z,1.53
2022-11-07T04:26:05.654Z,1.50
2022-11-07T04:29:09.745Z,1.60
2022-11-07T04:32:12.475Z,1.43
2022-11-07T04:35:15.861Z,1.50
2022-11-07T04:38:18.651Z,1.30
2022-11-07T04:41:23.665Z,1.50
2022-11-07T04:44:27.810Z,1.90
2022-11-07T04:47:31.145Z,1.57
2022-11-07T04:50:33.908Z,1.60
2022-11-07T04:53:37.053Z,1.43
2022-11-07T04:56:40.256Z,1.30
2022-11-07T04:59:44.331Z,1.33
2022-11-07T05:02:48.193Z,1.40
2022-11-07T05:05:51.119Z,1.43
2022-11-07T05:08:54.305Z,1.67
2022-11-07T05:11:57.361Z,1.30
2022-11-07T05:15:02.246Z,1.40
2022-11-07T05:18:05.233Z,1.70
2022-11-07T05:21:08.043Z,1.47
2022-11-07T05:24:11.784Z,1.30
2022-11-07T05:27:20.069Z,1.67
2022-11-07T05:30:24.544Z,1.53
2022-11-07T05:33:27.898Z,1.30
2022-11-07T05:36:31.089Z,1.50
2022-11-07T05:39:34.520Z,1.50
2022-11-07T05:42:37.702Z,1.67
2022-11-07T05:45:42.622Z,1.70
2022-11-07T05:48:45.941Z,1.50
2022-11-07T05:51:49.146Z,1.63
2022-11-07T05:54:51.896Z,1.60
2022-11-07T05:57:56.407Z,1.60
2022-11-07T06:01:03.649Z,2.20
2022-11-07T06:04:06.425Z,9.20
2022-11-07T06:07:09.156Z,4.63
2022-11-07T06:10:12.471Z,3.20
2022-11-07T06:13:18.102Z,3.47
2022-11-07T06:16:22.424Z,4.03
2022-11-07T06:19:25.277Z,3.60
2022-11-07T06:22:27.998Z,2.37
2022-11-07T06:25:31.348Z,1.80
2022-11-07T06:28:34.077Z,2.03
2022-11-07T06:31:38.173Z,1.70
2022-11-07T06:34:41.546Z,1.93
2022-11-07T06:37:44.329Z,2.63
2022-11-07T06:40:48.241Z,1.80
2022-11-07T06:43:51.661Z,2.17
2022-11-07T06:46:56.385Z,1.40
2022-11-07T06:49:59.109Z,1.50
2022-11-07T06:53:04.101Z,1.60
2022-11-07T06:56:09.061Z,1.40
2022-11-07T06:59:11.963Z,1.40
2022-11-07T07:02:30.823Z,1.37
2022-11-07T07:05:39.832Z,1.40
2022-11-07T07:08:42.969Z,1.40
2022-11-07T07:11:46.046Z,1.30
2022-11-07T07:14:48.774Z,1.40
2022-11-07T07:17:53.116Z,1.00
2022-11-07T07:21:03.085Z,1.30
2022-11-07T07:24:06.841Z,1.37
2022-11-07T07:27:09.620Z,1.70
2022-11-07T07:30:13.872Z,1.43
2022-11-07T07:33:18.697Z,1.10
2022-11-07T07:36:22.384Z,1.13
2022-11-07T07:39:27.539Z,1.03
2022-11-07T07:42:30.356Z,1.30
2022-11-07T07:45:33.510Z,1.10
2022-11-07T07:48:37.586Z,1.10
2022-11-07T07:51:40.426Z,1.50
2022-11-07T07:54:43.153Z,1.23
2022-11-07T07:57:46.357Z,1.10
2022-11-07T08:00:52.865Z,1.20
2022-11-07T08:04:02.028Z,1.20
2022-11-07T08:07:05.179Z,1.27
2022-11-07T08:10:35.111Z,0.90
2022-11-07T08:13:31.914Z,1.10
2022-11-07T08:16:34.804Z,1.03
2022-11-07T08:19:38.886Z,1.20
2022-11-07T08:22:42.217Z,1.13
2022-11-07T08:25:50.900Z,1.37
2022-11-07T08:28:55.235Z,2.30
2022-11-07T08:31:58.795Z,1.70
2022-11-07T08:35:02.858Z,2.03
2022-11-07T08:38:06.800Z,2.30
2022-11-07T08:41:09.590Z,5.57
2022-11-07T08:44:13.058Z,3.37
2022-11-07T08:47:15.803Z,2.20
2022-11-07T08:50:20.117Z,1.90
2022-11-07T08:53:23.971Z,1.30
2022-11-07T08:56:26.727Z,1.30
2022-11-07T08:59:30.204Z,1.57
2022-11-07T09:05:58.393Z,1.47
2022-11-07T09:09:01.391Z,1.00
2022-11-07T09:12:04.202Z,1.10
2022-11-07T09:15:07.981Z,1.23
2022-11-07T09:18:10.750Z,2.83
2022-11-07T09:21:21.762Z,8.57
2022-11-07T09:24:25.048Z,1.83
2022-11-07T09:27:28.222Z,1.00
2022-11-07T09:30:31.008Z,1.30
2022-11-07T09:33:34.148Z,1.40
2022-11-07T09:36:38.182Z,1.13
2022-11-07T09:39:41.379Z,1.47
2022-11-07T09:42:54.436Z,1.00
2022-11-07T09:46:11.118Z,1.57
2022-11-07T09:49:19.552Z,1.43
2022-11-07T09:52:29.697Z,1.23
2022-11-07T09:55:35.671Z,1.00
2022-11-07T09:58:42.953Z,1.20
2022-11-07T10:01:46.339Z,1.50
2022-11-07T10:04:56.363Z,1.33
2022-11-07T10:08:08.919Z,1.10
2022-11-07T10:11:17.869Z,1.20
2022-11-07T10:14:29.328Z,6.53
2022-11-07T10:17:43.135Z,14.60
2022-11-07T10:21:16.195Z,1.73
2022-11-07T10:24:36.284Z,6.97
2022-11-07T10:27:40.059Z,12.27
2022-11-07T10:30:46.225Z,3.03
2022-11-07T10:33:55.325Z,3.23
2022-11-07T10:36:58.081Z,2.63
2022-11-07T10:40:02.785Z,2.53
2022-11-07T10:43:10.320Z,2.87
2022-11-07T10:46:18.148Z,2.57
2022-11-07T10:49:22.503Z,3.30
2022-11-07T10:52:26.239Z,1.77
2022-11-07T10:55:34.891Z,2.00
2022-11-07T10:58:45.971Z,1.40
2022-11-07T11:01:52.221Z,1.73
2022-11-07T11:04:56.594Z,1.40
2022-11-07T11:08:14.453Z,1.33
2022-11-07T11:11:28.322Z,1.03
2022-11-07T11:14:31.218Z,1.30
2022-11-07T11:17:34.921Z,1.10
2022-11-07T11:20:40.985Z,1.03
2022-11-07T11:23:46.180Z,1.10
2022-11-07T11:26:53.151Z,1.27
2022-11-07T11:30:01.386Z,1.10
2022-11-07T11:33:11.611Z,1.60
2022-11-07T11:36:19.641Z,1.30
2022-11-07T11:39:28.569Z,1.43
2022-11-07T11:42:41.837Z,1.03
2022-11-07T11:45:53.543Z,1.00
2022-11-07T11:49:00.976Z,1.30
2022-11-07T11:52:12.239Z,1.17
2022-11-07T11:55:16.928Z,1.30
2022-11-07T11:58:33.228Z,1.60
2022-11-07T12:01:44.112Z,1.20
2022-11-07T12:04:57.983Z,1.07
2022-11-07T12:08:14.420Z,1.30
2022-11-07T12:11:24.792Z,1.20
2022-11-07T12:14:57.005Z,1.30
2022-11-07T12:18:06.445Z,1.20
2022-11-07T12:21:21.823Z,1.53
2022-11-07T12:24:34.379Z,1.00
2022-11-07T12:27:47.233Z,1.30
2022-11-07T12:31:02.138Z,1.00
2022-11-07T12:34:18.503Z,1.40
2022-11-07T12:37:57.235Z,1.60
2022-11-07T12:41:07.615Z,2.73
2022-11-07T12:44:29.116Z,1.63
2022-11-07T12:47:50.053Z,1.10
2022-11-07T12:51:04.032Z,0.87
2022-11-07T12:54:26.076Z,1.10
2022-11-07T12:57:33.028Z,1.40
2022-11-07T13:00:37.272Z,1.10
2022-11-07T13:04:06.696Z,1.53
2022-11-07T13:07:18.896Z,1.00
2022-11-07T13:10:27.431Z,1.67
2022-11-07T13:13:39.815Z,1.40
2022-11-07T13:16:52.692Z,1.37
2022-11-07T13:20:05.531Z,1.23
2022-11-07T13:23:17.235Z,1.83
2022-11-07T13:29:53.040Z,1.00
2022-11-07T13:32:55.914Z,1.10
2022-11-07T13:36:12.762Z,1.20
2022-11-07T13:39:22.678Z,1.30
2022-11-07T13:42:29.245Z,1.30
2022-11-07T13:45:38.752Z,1.20
2022-11-07T13:48:48.919Z,1.40
2022-11-07T13:51:56.491Z,1.50
2022-11-07T13:55:07.868Z,1.37
2022-11-07T13:58:15.179Z,1.47
2022-11-07T14:01:18.572Z,1.33
2022-11-07T14:04:22.620Z,1.47
2022-11-07T14:07:27.209Z,1.17
2022-11-07T14:10:33.641Z,2.70
2022-11-07T14:13:41.566Z,2.90
2022-11-07T14:16:46.628Z,9.47
2022-11-07T14:19:49.516Z,1.73
2022-11-07T14:22:55.925Z,1.77
2022-11-07T14:26:02.082Z,2.00
2022-11-07T14:29:04.953Z,1.17
2022-11-07T14:32:08.869Z,1.73
2022-11-07T14:35:11.710Z,1.43
2022-11-07T14:38:20.355Z,1.50
2022-11-07T14:41:24.232Z,1.67
2022-11-07T14:44:47.654Z,1.30
2022-11-07T14:47:54.558Z,7.03
2022-11-07T14:50:58.493Z,3.90
2022-11-07T14:54:07.829Z,2.50
2022-11-07T14:57:14.011Z,1.70
2022-11-07T15:00:20.432Z,1.77
2022-11-07T15:03:30.633Z,2.17
2022-11-07T15:06:35.685Z,1.80
2022-11-07T15:09:40.832Z,1.37
2022-11-07T15:12:51.171Z,2.03
2022-11-07T15:16:01.857Z,2.10
2022-11-07T15:19:07.178Z,2.07
2022-11-07T15:22:28.068Z,1.50
2022-11-07T15:25:37.641Z,1.50
2022-11-07T15:28:48.699Z,1.37
2022-11-07T15:31:51.606Z,1.40
2022-11-07T15:35:23.298Z,1.23
2022-11-07T15:38:22.472Z,1.57
2022-11-07T15:41:26.597Z,2.10
2022-11-07T15:44:29.362Z,1.77
2022-11-07T15:47:32.422Z,1.60
2022-11-07T15:50:40.551Z,1.33
2022-11-07T15:53:43.300Z,2.27
2022-11-07T15:56:48.169Z,1.40
2022-11-07T15:59:50.948Z,1.97
2022-11-07T16:02:54.250Z,3.97
2022-11-07T16:06:02.279Z,4.73
2022-11-07T16:09:05.796Z,4.23
2022-11-07T16:12:10.507Z,1.57
2022-11-07T16:15:13.924Z,2.03
2022-11-07T16:18:18.692Z,5.43
2022-11-07T16:21:22.035Z,3.17
2022-11-07T16:24:24.822Z,3.63
2022-11-07T16:27:29.043Z,3.53
2022-11-07T16:30:32.656Z,5.93
2022-11-07T16:33:35.650Z,3.40
2022-11-07T16:36:39.534Z,6.40
2022-11-07T16:39:42.422Z,3.63
2022-11-07T16:42:47.460Z,2.60
2022-11-07T16:45:52.684Z,9.40
2022-11-07T16:48:59.491Z,13.80
2022-11-07T16:52:04.288Z,15.80
2022-11-07T16:55:07.947Z,6.57
2022-11-07T16:58:23.781Z,13.67
2022-11-07T17:01:28.025Z,3.70
2022-11-07T17:04:30.881Z,4.60
2022-11-07T17:07:33.979Z,3.20
2022-11-07T17:10:36.709Z,2.97
2022-11-07T17:13:41.169Z,5.67
2022-11-07T17:16:48.383Z,8.20
2022-11-07T17:19:51.481Z,3.00
2022-11-07T17:22:54.589Z,12.27
2022-11-07T17:25:59.628Z,22.17
2022-11-07T17:29:06.967Z,10.73
2022-11-07T17:32:10.118Z,5.23
2022-11-07T17:38:36.404Z,3.03
2022-11-07T17:41:40.247Z,7.33
2022-11-07T17:44:44.501Z,9.70
2022-11-07T17:47:47.212Z,5.83
2022-11-07T17:50:49.983Z,6.70
2022-11-07T17:53:52.708Z,3.27
2022-11-07T17:56:55.572Z,5.07
2022-11-07T17:59:59.982Z,4.63
2022-11-07T18:03:04.152Z,3.73
2022-11-07T18:06:07.346Z,3.73
2022-11-07T18:09:15.347Z,2.67
2022-11-07T18:12:18.164Z,2.93
2022-11-07T18:15:22.346Z,5.33
2022-11-07T18:18:25.130Z,14.90
2022-11-07T18:21:29.254Z,19.23
2022-11-07T18:24:32.247Z,28.80
2022-11-07T18:27:35.028Z,12.73
2022-11-07T18:30:39.098Z,9.93
2022-11-07T18:33:42.653Z,3.83
2022-11-07T18:36:46.519Z,4.97
2022-11-07T18:39:49.374Z,22.57
2022-11-07T18:42:52.136Z,14.10
2022-11-07T18:45:57.206Z,6.00
2022-11-07T18:49:00.620Z,5.53
2022-11-07T18:52:03.866Z,7.70
2022-11-07T18:55:07.248Z,8.10
2022-11-07T18:58:10.674Z,6.13
2022-11-07T19:01:17.462Z,5.47
2022-11-07T19:04:20.557Z,5.70
2022-11-07T19:07:23.276Z,4.37
2022-11-07T19:10:26.081Z,4.10
2022-11-07T19:13:29.379Z,3.50
2022-11-07T19:16:33.645Z,3.13
2022-11-07T19:19:36.707Z,4.13
2022-11-07T19:22:40.408Z,4.13
2022-11-07T19:25:43.628Z,3.63
2022-11-07T19:28:46.427Z,4.73
2022-11-07T19:31:50.548Z,4.67
2022-11-07T19:34:53.292Z,4.70
2022-11-07T19:37:56.129Z,5.27
2022-11-07T19:41:03.008Z,4.27
2022-11-07T19:44:06.132Z,7.17
2022-11-07T19:47:10.600Z,7.37
2022-11-07T19:50:13.720Z,7.10
2022-11-07T19:53:17.106Z,5.17
2022-11-07T19:56:20.133Z,4.30
2022-11-07T19:59:23.005Z,5.80
2022-11-07T20:02:38.712Z,5.23
2022-11-07T20:05:45.614Z,3.90
2022-11-07T20:08:49.102Z,4.43
2022-11-07T20:11:51.849Z,5.70
2022-11-07T20:14:55.187Z,5.60
2022-11-07T20:17:59.307Z,14.47
2022-11-07T20:21:03.563Z,13.23
2022-11-07T20:24:09.074Z,15.20
2022-11-07T20:27:11.912Z,7.83
2022-11-07T20:30:15.330Z,6.93
2022-11-07T20:33:19.561Z,8.03
2022-11-07T20:36:22.907Z,7.70
2022-11-07T20:39:25.670Z,7.23
2022-11-07T20:42:29.220Z,6.93
2022-11-07T20:45:31.978Z,6.73
2022-11-07T20:48:36.795Z,6.60
2022-11-07T20:51:41.187Z,6.23
2022-11-07T20:54:43.935Z,7.57
2022-11-07T20:57:46.704Z,4.10
2022-11-07T21:00:49.536Z,3.10
2022-11-07T21:03:54.492Z,3.30
2022-11-07T21:06:57.460Z,3.53
2022-11-07T21:10:00.204Z,5.60
2022-11-07T21:13:05.378Z,4.90
2022-11-07T21:16:09.370Z,5.30
2022-11-07T21:19:16.299Z,7.43
2022-11-07T21:22:19.569Z,7.70
2022-11-07T21:25:22.404Z,10.50
2022-11-07T21:28:26.424Z,9.70
2022-11-07T21:31:31.964Z,8.10
2022-11-07T21:34:37.673Z,6.13
2022-11-07T21:37:40.491Z,6.10
2022-11-07T21:40:43.260Z,5.87
2022-11-07T21:43:46.629Z,6.10
2022-11-07T21:46:49.897Z,6.20
2022-11-07T21:49:54.338Z,6.60
2022-11-07T21:52:57.268Z,5.90
2022-11-07T21:56:02.214Z,6.70
2022-11-07T21:59:07.436Z,6.17
2022-11-07T22:02:12.981Z,6.80
2022-11-07T22:05:17.280Z,6.87
2022-11-07T22:08:23.669Z,6.50
2022-11-07T22:11:27.183Z,4.00
2022-11-07T22:14:30.441Z,3.43
2022-11-07T22:17:33.188Z,3.50
2022-11-07T22:20:39.013Z,6.30
2022-11-07T22:23:42.159Z,4.50
2022-11-07T22:26:45.535Z,5.77
2022-11-07T22:29:48.253Z,5.20
2022-11-07T22:32:52.032Z,4.63
2022-11-07T22:35:57.335Z,4.87
2022-11-07T22:39:00.426Z,5.80
2022-11-07T22:42:03.682Z,6.03
2022-11-07T22:45:07.741Z,4.87
2022-11-07T22:48:11.091Z,5.03
2022-11-07T22:51:16.901Z,5.27
2022-11-07T22:54:20.084Z,5.10
2022-11-07T22:57:22.847Z,5.57
2022-11-07T23:00:25.702Z,5.77
2022-11-07T23:03:29.021Z,6.60
2022-11-07T23:06:34.073Z,6.10
2022-11-07T23:09:36.950Z,5.83
2022-11-07T23:12:40.128Z,5.53
2022-11-07T23:15:42.870Z,6.17
2022-11-07T23:18:46.092Z,6.03
2022-11-07T23:21:50.893Z,6.40
2022-11-07T23:24:54.143Z,7.30
2022-11-07T23:27:57.219Z,6.47
2022-11-07T23:30:59.948Z,6.43
2022-11-07T23:34:03.282Z,7.70
2022-11-07T23:37:13.775Z,5.67
2022-11-07T23:40:17.230Z,4.80
2022-11-07T23:43:19.956Z,4.53
2022-11-07T23:46:40.367Z,4.70
2022-11-07T23:50:09.324Z,5.10
2022-11-07T23:53:27.353Z,5.80
2022-11-07T23:56:30.724Z,5.20
2022-11-07T23:59:51.772Z,4.87
